Time;durP1;ratioP1;P1;durP2;ratioP2;P2;SDS_P1;SDS_P2;PMS_P1;PMS_P2;Temp;Humidity;BMP_temperature;BMP_pressure;BME280_temperature;BME280_humidity;BME280_pressure;Samples;Min_cycle;Max_cycle;Signal;HPM_P1;HPM_P2
2022/10/09 00:00:44;;;;;;;20.60;11.63;;;7.30;99.90;;;;;;6183438;23;19998;-71
2022/10/09 00:03:10;;;;;;;17.47;9.43;;;7.20;99.90;;;;;;6183718;23;20503;-71
2022/10/09 00:05:35;;;;;;;12.47;10.53;;;7.10;99.90;;;;;;6183423;23;20056;-74
2022/10/09 00:08:01;;;;;;;14.30;9.53;;;7.20;99.90;;;;;;6183335;23;20423;-72
2022/10/09 00:10:27;;;;;;;14.83;9.63;;;7.20;99.90;;;;;;6183969;23;20032;-72
2022/10/09 00:12:52;;;;;;;14.97;9.87;;;7.00;99.90;;;;;;6182562;23;20033;-72
2022/10/09 00:15:18;;;;;;;12.87;9.07;;;7.00;99.90;;;;;;6183441;23;20041;-72
2022/10/09 00:17:43;;;;;;;14.43;9.10;;;7.10;99.90;;;;;;6183174;23;20021;-72
2022/10/09 00:20:09;;;;;;;12.63;8.63;;;7.00;99.90;;;;;;6183610;23;20043;-72
2022/10/09 00:22:35;;;;;;;14.70;8.83;;;7.10;99.90;;;;;;6183334;23;20012;-71
2022/10/09 00:25:00;;;;;;;12.03;9.40;;;7.00;99.90;;;;;;6183081;23;20490;-72
2022/10/09 00:27:26;;;;;;;11.33;8.50;;;7.00;99.90;;;;;;6182734;23;20005;-72
2022/10/09 00:29:51;;;;;;;14.73;9.30;;;7.00;99.90;;;;;;6182880;23;20131;-72
2022/10/09 00:32:17;;;;;;;19.50;12.60;;;7.00;99.90;;;;;;6183259;23;20064;-72
2022/10/09 00:34:43;;;;;;;17.77;11.00;;;7.00;99.90;;;;;;6182952;23;20036;-71
2022/10/09 00:37:09;;;;;;;14.87;11.00;;;7.10;99.90;;;;;;6182369;23;20011;-72
2022/10/09 00:39:34;;;;;;;17.50;11.37;;;6.90;99.90;;;;;;6183026;23;20009;-72
2022/10/09 00:42:00;;;;;;;17.43;10.67;;;7.00;99.90;;;;;;6182422;23;20371;-72
2022/10/09 00:44:51;;;;;;;15.97;11.73;;;8.10;99.90;;;;;;6182965;23;20005;-71
2022/10/09 00:47:39;;;;;;;12.23;8.33;;;6.80;99.90;;;;;;6182950;23;20004;-72
2022/10/09 00:50:16;;;;;;;11.40;9.33;;;6.80;99.90;;;;;;6183066;23;20308;-72
2022/10/09 00:52:42;;;;;;;14.90;9.50;;;6.80;99.90;;;;;;6183049;23;20036;-72
2022/10/09 00:55:09;;;;;;;13.83;9.83;;;6.80;99.90;;;;;;6182611;23;20084;-71
2022/10/09 00:57:37;;;;;;;16.93;10.27;;;6.80;99.90;;;;;;6182983;23;20047;-72
2022/10/09 01:00:07;;;;;;;18.87;10.60;;;6.90;99.90;;;;;;6183106;23;19997;-72
2022/10/09 01:02:33;;;;;;;14.47;9.07;;;6.70;99.90;;;;;;6182933;23;20481;-71
2022/10/09 01:04:59;;;;;;;12.17;9.67;;;6.80;99.90;;;;;;6182822;23;20076;-72
2022/10/09 01:07:55;;;;;;;11.80;8.87;;;6.70;99.90;;;;;;6182861;23;20008;-72
2022/10/09 01:10:34;;;;;;;10.83;8.80;;;6.80;99.90;;;;;;6182581;23;20016;-72
2022/10/09 01:13:17;;;;;;;12.50;9.17;;;7.80;99.90;;;;;;6182658;23;20367;-72
2022/10/09 01:16:10;;;;;;;15.43;9.70;;;6.60;99.90;;;;;;6182796;23;20002;-72
2022/10/09 01:18:52;;;;;;;13.87;9.43;;;6.50;99.90;;;;;;6182568;23;20009;-72
2022/10/09 01:21:25;;;;;;;14.33;9.13;;;6.60;99.90;;;;;;6182886;23;20009;-71
2022/10/09 01:24:28;;;;;;;14.73;10.57;;;6.70;99.90;;;;;;6181760;23;20056;-72
2022/10/09 01:27:08;;;;;;;12.23;8.90;;;6.60;99.90;;;;;;6182398;23;20621;-72
2022/10/09 01:29:39;;;;;;;10.87;8.17;;;6.60;99.90;;;;;;6182671;23;20005;-72
2022/10/09 01:32:08;;;;;;;14.67;8.73;;;6.50;99.90;;;;;;6182813;23;20001;-72
2022/10/09 01:34:35;;;;;;;13.80;8.90;;;6.60;99.90;;;;;;6182393;23;20439;-72
2022/10/09 01:37:02;;;;;;;13.80;8.33;;;6.50;99.90;;;;;;6182484;23;20005;-71
2022/10/09 01:39:29;;;;;;;12.77;8.90;;;6.40;99.90;;;;;;6181993;23;20055;-71
2022/10/09 01:41:56;;;;;;;11.40;9.07;;;6.40;99.90;;;;;;6181610;23;20048;-72
2022/10/09 01:44:27;;;;;;;11.83;8.23;;;6.50;99.90;;;;;;6181334;23;20033;-72
2022/10/09 01:46:53;;;;;;;11.33;8.10;;;6.40;99.90;;;;;;6182218;23;20005;-72
2022/10/09 01:49:39;;;;;;;11.53;7.67;;;6.30;99.90;;;;;;6181925;23;20074;-72
2022/10/09 01:52:20;;;;;;;8.97;8.03;;;6.50;99.90;;;;;;6182526;23;19997;-72
2022/10/09 01:55:06;;;;;;;11.87;8.20;;;6.50;99.90;;;;;;6182387;23;20029;-71
2022/10/09 01:57:42;;;;;;;9.40;7.73;;;6.40;99.90;;;;;;6161163;23;20009;-72
2022/10/09 02:00:10;;;;;;;8.93;7.57;;;6.30;99.90;;;;;;6182310;23;20079;-72
2022/10/09 02:02:37;;;;;;;9.67;7.80;;;6.30;99.90;;;;;;6182043;23;20009;-72
2022/10/09 02:05:03;;;;;;;9.43;8.03;;;6.40;99.90;;;;;;6182434;23;20076;-71
2022/10/09 02:07:31;;;;;;;12.80;8.07;;;6.30;99.90;;;;;;6181875;23;20358;-72
2022/10/09 02:09:58;;;;;;;14.27;8.60;;;6.30;99.90;;;;;;6182269;23;20020;-71
2022/10/09 02:12:26;;;;;;;11.10;8.37;;;6.40;99.90;;;;;;6182296;23;20005;-71
2022/10/09 02:14:52;;;;;;;11.87;8.00;;;6.30;99.90;;;;;;6182188;23;20009;-72
2022/10/09 02:17:22;;;;;;;12.07;7.80;;;6.30;99.90;;;;;;6182165;23;20431;-72
2022/10/09 02:20:00;;;;;;;12.00;7.57;;;6.30;99.90;;;;;;6182153;23;20009;-71
2022/10/09 02:22:29;;;;;;;11.93;7.63;;;6.00;99.90;;;;;;6181872;23;20113;-71
2022/10/09 02:24:58;;;;;;;8.73;7.50;;;6.30;99.90;;;;;;6181864;23;20016;-71
2022/10/09 02:27:25;;;;;;;9.13;7.10;;;6.20;99.90;;;;;;6182293;23;20060;-72
2022/10/09 02:29:51;;;;;;;12.73;7.93;;;6.20;99.90;;;;;;6181937;23;20079;-72
2022/10/09 02:32:17;;;;;;;14.50;9.20;;;6.10;99.90;;;;;;6182220;23;20433;-72
2022/10/09 02:34:44;;;;;;;9.47;7.70;;;6.00;99.90;;;;;;6181848;23;20008;-71
2022/10/09 02:37:09;;;;;;;11.50;8.47;;;5.90;99.90;;;;;;6181422;23;20403;-72
2022/10/09 02:39:35;;;;;;;12.90;8.73;;;6.10;99.90;;;;;;6182386;23;20517;-71
2022/10/09 02:42:01;;;;;;;11.63;7.80;;;5.90;99.90;;;;;;6182168;23;19997;-72
2022/10/09 02:44:27;;;;;;;11.83;9.07;;;6.10;99.90;;;;;;6182110;23;19997;-72
2022/10/09 02:46:52;;;;;;;12.57;8.43;;;6.10;99.90;;;;;;6181858;23;20008;-71
2022/10/09 02:49:18;;;;;;;14.13;9.20;;;;;;;;;;6182088;23;20140;-71
2022/10/09 02:51:44;;;;;;;11.67;9.43;;;6.10;99.90;;;;;;6181331;23;20124;-71
2022/10/09 02:54:10;;;;;;;13.17;8.87;;;6.00;99.90;;;;;;6181947;23;20011;-71
2022/10/09 02:56:36;;;;;;;10.60;8.00;;;6.00;99.90;;;;;;6182118;23;20012;-72
2022/10/09 02:59:01;;;;;;;11.03;8.33;;;7.70;99.90;;;;;;6182026;23;20009;-71
2022/10/09 03:01:27;;;;;;;11.07;8.37;;;5.90;99.90;;;;;;6182205;23;20431;-71
2022/10/09 03:03:52;;;;;;;12.57;9.43;;;5.80;99.90;;;;;;6181751;23;20028;-72
2022/10/09 03:06:21;;;;;;;17.00;10.57;;;6.20;99.90;;;;;;6181450;23;20059;-71
2022/10/09 03:08:48;;;;;;;13.93;9.17;;;6.10;99.90;;;;;;6181841;23;20002;-72
2022/10/09 03:11:16;;;;;;;14.23;8.77;;;6.00;99.90;;;;;;6183716;23;20012;-72
2022/10/09 03:13:42;;;;;;;12.60;8.37;;;5.90;99.90;;;;;;6183795;23;20415;-71
2022/10/09 03:16:13;;;;;;;13.07;8.20;;;5.80;99.90;;;;;;6184021;23;20080;-71
2022/10/09 03:18:39;;;;;;;14.40;8.53;;;5.90;99.90;;;;;;6183670;23;20011;-71
2022/10/09 03:21:06;;;;;;;14.83;9.03;;;5.70;99.90;;;;;;6183488;23;20005;-72
2022/10/09 03:23:32;;;;;;;11.70;8.33;;;5.80;99.90;;;;;;6183882;23;20077;-71
2022/10/09 03:25:59;;;;;;;11.83;8.77;;;6.00;99.90;;;;;;6183339;23;20358;-71
2022/10/09 03:28:26;;;;;;;14.57;9.77;;;5.90;99.90;;;;;;6183641;23;20009;-71
2022/10/09 03:30:52;;;;;;;13.07;8.60;;;5.90;99.90;;;;;;6183018;23;20080;-72
2022/10/09 03:33:18;;;;;;;13.93;9.17;;;5.70;99.90;;;;;;6183759;23;20033;-72
2022/10/09 03:35:45;;;;;;;16.60;9.37;;;5.60;99.90;;;;;;6182999;23;20020;-71
2022/10/09 03:38:12;;;;;;;13.70;8.97;;;5.70;99.90;;;;;;6183671;23;20001;-72
2022/10/09 03:40:37;;;;;;;14.97;9.00;;;5.60;99.90;;;;;;6183293;23;19997;-73
2022/10/09 03:43:03;;;;;;;14.30;10.00;;;5.60;99.90;;;;;;6183864;23;20005;-74
2022/10/09 03:45:28;;;;;;;13.37;9.00;;;5.60;99.90;;;;;;6183750;23;20083;-71
2022/10/09 03:47:54;;;;;;;12.40;8.83;;;5.60;99.90;;;;;;6183324;23;20095;-71
2022/10/09 03:50:20;;;;;;;13.80;8.77;;;5.80;99.90;;;;;;6182927;23;20009;-71
2022/10/09 03:52:45;;;;;;;12.17;9.20;;;5.70;99.90;;;;;;6183437;23;20024;-72
2022/10/09 03:55:11;;;;;;;12.17;9.73;;;5.60;99.90;;;;;;6183442;23;20032;-72
2022/10/09 03:57:36;;;;;;;15.17;9.00;;;5.70;99.90;;;;;;6183419;23;20001;-72
2022/10/09 04:00:03;;;;;;;12.60;9.47;;;5.70;99.90;;;;;;6183529;23;20013;-71
2022/10/09 04:02:31;;;;;;;11.47;8.73;;;5.70;99.90;;;;;;6183282;23;20005;-71
2022/10/09 04:04:56;;;;;;;12.70;9.30;;;5.70;99.90;;;;;;6182481;23;20032;-72
2022/10/09 04:07:22;;;;;;;9.53;8.17;;;5.80;99.90;;;;;;6182781;23;20052;-71
2022/10/09 04:09:47;;;;;;;11.90;9.53;;;5.70;99.90;;;;;;6182928;23;20056;-72
2022/10/09 04:12:13;;;;;;;13.00;9.47;;;5.50;99.90;;;;;;6182775;23;20072;-71
2022/10/09 04:14:38;;;;;;;10.03;8.17;;;5.70;99.90;;;;;;6182699;23;20087;-71
2022/10/09 04:17:04;;;;;;;9.97;7.90;;;5.50;99.90;;;;;;6182910;23;20004;-71
2022/10/09 04:19:29;;;;;;;13.80;7.70;;;5.60;99.90;;;;;;6182451;23;20012;-71
2022/10/09 04:21:55;;;;;;;11.77;8.73;;;5.40;99.90;;;;;;6182593;23;20025;-71
2022/10/09 04:24:20;;;;;;;13.40;9.73;;;5.60;99.90;;;;;;6182395;23;20001;-71
2022/10/09 04:26:46;;;;;;;13.47;8.93;;;5.60;99.90;;;;;;6182850;23;20001;-71
2022/10/09 04:29:12;;;;;;;12.87;9.33;;;;;;;;;;6182880;23;20001;-71
2022/10/09 04:31:37;;;;;;;14.53;8.63;;;5.40;99.90;;;;;;6182819;23;20012;-71
2022/10/09 04:34:03;;;;;;;20.03;13.03;;;5.50;99.90;;;;;;6182675;23;20017;-71
2022/10/09 04:36:28;;;;;;;15.63;11.43;;;5.60;99.90;;;;;;6183163;23;20036;-72
2022/10/09 04:38:54;;;;;;;17.47;10.37;;;5.60;99.90;;;;;;6182882;23;20012;-71
2022/10/09 04:41:19;;;;;;;12.63;11.33;;;5.50;99.90;;;;;;6183079;23;20032;-71
2022/10/09 04:43:45;;;;;;;14.13;9.77;;;5.50;99.90;;;;;;6183550;23;20371;-71
2022/10/09 04:46:13;;;;;;;11.33;9.13;;;5.50;99.90;;;;;;6183146;23;20419;-72
2022/10/09 04:48:43;;;;;;;12.87;9.73;;;5.50;99.90;;;;;;6182533;23;20009;-71
2022/10/09 04:51:09;;;;;;;10.80;9.17;;;5.40;99.90;;;;;;6182952;23;20008;-71
2022/10/09 04:53:36;;;;;;;18.20;8.70;;;5.50;99.90;;;;;;6183067;23;20027;-71
2022/10/09 04:56:04;;;;;;;15.07;9.37;;;5.40;99.90;;;;;;6182916;23;20012;-71
2022/10/09 04:58:30;;;;;;;16.90;9.53;;;5.40;99.90;;;;;;6182915;23;20011;-72
2022/10/09 05:00:56;;;;;;;14.27;9.03;;;5.30;99.90;;;;;;6182069;23;20384;-72
2022/10/09 05:03:21;;;;;;;11.47;8.60;;;5.30;99.90;;;;;;6182760;23;20001;-71
2022/10/09 05:05:47;;;;;;;13.10;8.57;;;5.20;99.90;;;;;;6182717;23;20068;-72
2022/10/09 05:08:13;;;;;;;17.97;10.23;;;5.30;99.90;;;;;;6182785;23;20033;-71
2022/10/09 05:10:38;;;;;;;11.47;7.83;;;5.30;99.90;;;;;;6182404;23;20005;-71
2022/10/09 05:13:04;;;;;;;13.43;7.93;;;5.30;99.90;;;;;;6182893;23;20004;-72
2022/10/09 05:15:30;;;;;;;13.57;8.57;;;5.30;99.90;;;;;;6182067;23;20005;-71
2022/10/09 05:17:56;;;;;;;17.90;10.43;;;5.20;99.90;;;;;;6182423;23;20457;-71
2022/10/09 05:20:21;;;;;;;15.07;9.07;;;5.00;99.90;;;;;;6182519;23;20001;-71
2022/10/09 05:22:48;;;;;;;13.27;9.27;;;5.10;99.90;;;;;;6182615;23;20025;-71
2022/10/09 05:25:14;;;;;;;14.53;9.10;;;5.10;99.90;;;;;;6182932;23;20327;-71
2022/10/09 05:27:39;;;;;;;15.23;9.50;;;5.10;99.90;;;;;;6182810;23;20008;-71
2022/10/09 05:30:06;;;;;;;12.87;9.07;;;5.30;99.90;;;;;;6182164;23;20044;-73
2022/10/09 05:32:31;;;;;;;17.70;9.80;;;5.20;99.90;;;;;;6182319;23;20363;-74
2022/10/09 05:34:57;;;;;;;12.07;8.63;;;5.20;99.90;;;;;;6182057;23;20060;-74
2022/10/09 05:37:22;;;;;;;14.43;9.13;;;5.20;99.90;;;;;;6182490;23;20095;-73
2022/10/09 05:39:48;;;;;;;11.57;8.47;;;5.00;99.90;;;;;;6182825;23;19997;-74
2022/10/09 05:42:14;;;;;;;11.37;8.43;;;5.10;99.90;;;;;;6182463;23;20005;-74
2022/10/09 05:44:39;;;;;;;12.37;7.33;;;5.10;99.90;;;;;;6181987;23;20060;-74
2022/10/09 05:47:05;;;;;;;9.80;8.00;;;5.00;99.90;;;;;;6182617;23;20015;-74
2022/10/09 05:49:30;;;;;;;15.83;7.80;;;5.10;99.90;;;;;;6182837;23;20370;-74
2022/10/09 05:51:56;;;;;;;12.37;8.43;;;5.20;99.90;;;;;;6182146;23;20135;-74
2022/10/09 05:54:21;;;;;;;14.40;8.00;;;5.10;99.90;;;;;;6182569;23;19998;-74
2022/10/09 05:56:47;;;;;;;12.37;8.40;;;5.30;99.90;;;;;;6182132;23;20001;-74
2022/10/09 05:59:18;;;;;;;9.43;8.33;;;5.20;99.90;;;;;;6181871;23;20013;-71
2022/10/09 06:01:47;;;;;;;11.33;8.30;;;5.10;99.90;;;;;;6182248;23;20029;-71
2022/10/09 06:04:18;;;;;;;13.97;9.10;;;5.20;99.90;;;;;;6182434;23;20027;-71
2022/10/09 06:06:47;;;;;;;15.83;9.07;;;5.10;99.90;;;;;;6182401;23;20004;-72
2022/10/09 06:09:17;;;;;;;12.50;9.90;;;5.20;99.90;;;;;;6182470;23;20008;-71
2022/10/09 06:11:43;;;;;;;17.47;11.53;;;5.30;99.90;;;;;;6182385;23;20012;-71
2022/10/09 06:14:11;;;;;;;17.80;11.77;;;5.90;99.90;;;;;;6181814;23;20327;-72
2022/10/09 06:16:39;;;;;;;21.47;11.60;;;5.30;99.90;;;;;;6182224;23;20001;-71
2022/10/09 06:19:05;;;;;;;14.93;11.37;;;5.40;99.90;;;;;;6182044;23;20039;-71
2022/10/09 06:21:31;;;;;;;13.10;10.53;;;5.50;99.90;;;;;;6182327;23;20005;-72
2022/10/09 06:23:58;;;;;;;17.60;10.60;;;5.60;99.90;;;;;;6181975;23;20463;-71
2022/10/09 06:26:28;;;;;;;20.23;10.90;;;5.60;99.90;;;;;;6181769;23;20001;-71
2022/10/09 06:28:54;;;;;;;19.53;12.03;;;5.80;99.90;;;;;;6181878;23;20005;-72
2022/10/09 06:31:23;;;;;;;18.23;11.23;;;5.80;99.90;;;;;;6182139;23;20005;-72
2022/10/09 06:33:50;;;;;;;16.47;12.20;;;5.70;99.90;;;;;;6181874;23;20008;-72
2022/10/09 06:36:19;;;;;;;21.17;11.43;;;5.80;99.90;;;;;;6182224;23;20427;-72
2022/10/09 06:38:45;;;;;;;16.53;9.70;;;5.80;99.90;;;;;;6182067;23;20420;-72
2022/10/09 06:41:16;;;;;;;19.77;11.33;;;5.90;99.90;;;;;;6182081;23;20001;-72
2022/10/09 06:43:42;;;;;;;17.13;11.67;;;5.80;99.90;;;;;;6181757;23;20419;-72
2022/10/09 06:46:11;;;;;;;19.57;10.97;;;5.80;99.90;;;;;;6182057;23;20047;-72
2022/10/09 06:48:39;;;;;;;19.60;12.80;;;6.10;99.90;;;;;;6181898;23;20011;-72
2022/10/09 06:51:07;;;;;;;24.67;14.03;;;5.80;99.90;;;;;;6181957;23;20005;-72
2022/10/09 06:53:38;;;;;;;18.40;12.37;;;6.10;99.90;;;;;;6181940;23;20084;-72
2022/10/09 06:56:04;;;;;;;18.80;12.50;;;5.90;99.90;;;;;;6181814;23;20123;-72
2022/10/09 06:58:30;;;;;;;17.73;13.67;;;6.00;99.90;;;;;;6181293;23;20427;-73
2022/10/09 07:01:23;;;;;;;25.70;17.70;;;6.20;99.90;;;;;;6181762;23;20052;-72
2022/10/09 07:03:54;;;;;;;25.73;15.73;;;6.30;99.90;;;;;;6177704;23;20076;-72
2022/10/09 07:06:22;;;;;;;24.60;16.80;;;6.40;99.90;;;;;;6181930;23;20005;-72
2022/10/09 07:08:54;;;;;;;21.17;16.20;;;6.40;99.90;;;;;;6181957;23;20040;-72
2022/10/09 07:11:26;;;;;;;36.27;19.10;;;6.50;99.90;;;;;;6181280;23;20032;-71
2022/10/09 07:13:59;;;;;;;26.47;18.10;;;6.50;99.90;;;;;;6181685;23;20009;-71
2022/10/09 07:16:28;;;;;;;30.00;17.45;;;6.80;99.90;;;;;;6182152;23;20323;-71
2022/10/09 07:18:54;;;;;;;29.83;20.43;;;6.70;99.90;;;;;;6181297;23;20002;-72
2022/10/09 07:21:20;;;;;;;23.40;18.43;;;6.80;99.90;;;;;;6181256;23;20016;-72
2022/10/09 07:23:46;;;;;;;31.43;19.00;;;6.90;99.90;;;;;;6181676;23;20028;-72
2022/10/09 07:26:17;;;;;;;28.20;18.13;;;7.00;99.90;;;;;;6181139;23;20399;-71
2022/10/09 07:28:44;;;;;;;27.03;18.87;;;7.00;99.90;;;;;;6181890;23;20392;-71
2022/10/09 07:31:10;;;;;;;26.23;15.70;;;7.10;99.90;;;;;;6181987;23;20051;-71
2022/10/09 07:33:37;;;;;;;18.63;13.70;;;7.20;99.90;;;;;;6181821;23;20020;-70
2022/10/09 07:36:04;;;;;;;29.90;17.60;;;7.20;99.90;;;;;;6182031;23;20005;-71
2022/10/09 07:38:30;;;;;;;33.90;17.60;;;8.00;99.90;;;;;;6180227;23;20005;-71
2022/10/09 07:41:08;;;;;;;24.37;16.43;;;7.40;99.90;;;;;;6180994;23;20427;-71
2022/10/09 07:43:38;;;;;;;27.40;16.67;;;7.50;99.90;;;;;;6182124;23;20308;-71
2022/10/09 07:46:06;;;;;;;35.97;17.67;;;7.40;99.90;;;;;;6181721;23;20001;-71
2022/10/09 07:48:33;;;;;;;22.63;16.90;;;7.50;99.90;;;;;;6181546;23;20426;-71
2022/10/09 07:51:10;;;;;;;30.20;17.53;;;7.60;99.90;;;;;;6181892;23;20005;-71
2022/10/09 07:53:36;;;;;;;21.80;14.63;;;7.70;99.90;;;;;;6181930;23;20005;-71
2022/10/09 07:56:03;;;;;;;24.73;15.43;;;7.80;99.90;;;;;;6182363;23;20322;-71
2022/10/09 07:58:29;;;;;;;24.33;15.33;;;7.80;99.90;;;;;;6183745;23;20403;-70
2022/10/09 08:00:54;;;;;;;19.17;14.23;;;7.70;99.90;;;;;;6183349;23;20008;-72
2022/10/09 08:03:20;;;;;;;24.10;14.70;;;7.80;99.90;;;;;;6183675;23;20005;-72
2022/10/09 08:05:53;;;;;;;23.87;14.43;;;7.90;99.90;;;;;;6183473;23;20001;-71
2022/10/09 08:08:19;;;;;;;21.80;14.73;;;8.00;99.90;;;;;;6183400;23;20005;-71
2022/10/09 08:10:44;;;;;;;22.87;16.27;;;8.00;99.90;;;;;;6183079;23;20005;-71
2022/10/09 08:13:10;;;;;;;23.30;15.17;;;8.10;99.90;;;;;;6183436;23;20025;-71
2022/10/09 08:15:41;;;;;;;27.47;16.53;;;8.20;99.90;;;;;;6183354;23;20033;-71
2022/10/09 08:18:07;;;;;;;23.17;16.27;;;8.30;99.90;;;;;;6183031;23;20009;-71
2022/10/09 08:20:32;;;;;;;19.43;14.87;;;8.40;99.90;;;;;;6183297;23;20005;-70
2022/10/09 08:22:58;;;;;;;26.17;17.37;;;8.30;99.90;;;;;;6181612;23;20382;-71
2022/10/09 08:25:23;;;;;;;23.03;15.73;;;8.60;99.90;;;;;;6182210;23;20055;-71
2022/10/09 08:27:52;;;;;;;20.43;14.17;;;8.70;99.90;;;;;;6183368;23;20092;-71
2022/10/09 08:30:17;;;;;;;23.07;15.63;;;8.80;99.90;;;;;;6183327;23;20005;-71
2022/10/09 08:32:43;;;;;;;21.33;14.73;;;8.80;99.90;;;;;;6183241;23;20016;-71
2022/10/09 08:35:08;;;;;;;21.03;14.47;;;8.90;99.90;;;;;;6181378;23;20439;-71
2022/10/09 08:37:34;;;;;;;21.80;13.57;;;9.10;99.90;;;;;;6183258;23;20013;-71
2022/10/09 08:40:00;;;;;;;16.53;14.00;;;9.10;99.90;;;;;;6182694;23;20056;-71
2022/10/09 08:42:41;;;;;;;20.10;13.47;;;9.20;99.90;;;;;;6183117;23;20375;-71
2022/10/09 08:45:17;;;;;;;20.23;12.17;;;9.20;99.90;;;;;;6183164;23;20008;-71
2022/10/09 08:47:56;;;;;;;19.43;15.33;;;9.30;99.90;;;;;;6183196;23;20335;-71
2022/10/09 08:50:26;;;;;;;24.83;13.57;;;9.50;99.90;;;;;;6183125;23;20008;-71
2022/10/09 08:52:51;;;;;;;23.00;15.20;;;9.50;99.90;;;;;;6182327;23;20005;-71
2022/10/09 08:55:22;;;;;;;21.63;14.27;;;9.70;99.90;;;;;;6183045;23;20008;-71
2022/10/09 08:57:50;;;;;;;20.60;13.03;;;9.60;99.90;;;;;;6182966;23;20438;-72
2022/10/09 09:00:19;;;;;;;22.53;11.80;;;9.80;99.90;;;;;;6182920;23;20084;-71
2022/10/09 09:03:05;;;;;;;24.60;14.53;;;9.90;99.90;;;;;;6183001;23;20663;-71
2022/10/09 09:06:06;;;;;;;16.80;12.80;;;10.00;99.90;;;;;;6182956;23;20499;-72
2022/10/09 09:09:00;;;;;;;16.80;11.97;;;10.10;99.90;;;;;;6181829;23;20007;-72
2022/10/09 09:11:34;;;;;;;17.93;11.23;;;10.30;99.90;;;;;;6183079;23;20080;-72
2022/10/09 09:14:30;;;;;;;23.80;12.73;;;10.50;99.90;;;;;;6182586;23;20232;-72
2022/10/09 09:17:17;;;;;;;21.53;10.87;;;10.70;99.90;;;;;;6166790;23;20379;-71
2022/10/09 09:20:03;;;;;;;20.07;10.37;;;10.80;99.90;;;;;;6182735;23;20005;-72
2022/10/09 09:22:31;;;;;;;17.93;10.23;;;11.70;99.90;;;;;;6182140;23;20012;-72
2022/10/09 09:24:57;;;;;;;15.07;10.73;;;11.00;99.90;;;;;;6182638;23;20013;-72
2022/10/09 09:27:32;;;;;;;17.20;10.50;;;11.10;99.90;;;;;;6182885;23;20035;-71
2022/10/09 09:30:19;;;;;;;17.40;10.67;;;11.20;99.90;;;;;;6182739;23;20427;-72
2022/10/09 09:33:12;;;;;;;15.50;10.15;;;11.20;99.90;;;;;;6182525;23;20005;-72
2022/10/09 09:36:06;;;;;;;17.53;10.23;;;11.30;99.90;;;;;;6182415;23;20013;-72
2022/10/09 09:38:31;;;;;;;15.57;9.45;;;11.50;99.90;;;;;;6182176;23;20020;-72
2022/10/09 09:40:57;;;;;;;12.10;9.17;;;11.50;99.90;;;;;;6183226;23;20008;-72
2022/10/09 09:43:25;;;;;;;14.33;9.87;;;11.70;99.90;;;;;;6182644;23;19997;-72
2022/10/09 09:45:57;;;;;;;12.13;9.63;;;11.90;99.90;;;;;;6182251;23;19997;-72
2022/10/09 09:48:38;;;;;;;12.27;8.33;;;12.10;99.90;;;;;;6182459;23;20136;-72
2022/10/09 09:51:10;;;;;;;13.77;9.00;;;12.20;99.90;;;;;;6182182;23;20016;-72
2022/10/09 09:53:41;;;;;;;17.75;8.80;;;12.30;99.90;;;;;;6182612;23;20005;-72
2022/10/09 09:56:07;;;;;;;10.00;8.05;;;12.30;99.90;;;;;;6182700;23;20009;-72
2022/10/09 09:58:42;;;;;;;14.73;9.18;;;12.30;99.90;;;;;;6183087;23;20033;-72
2022/10/09 10:01:21;;;;;;;10.70;6.68;;;12.40;99.90;;;;;;6181083;23;20071;-72
2022/10/09 10:03:49;;;;;;;9.65;7.03;;;12.50;99.90;;;;;;6182380;23;20015;-72
2022/10/09 10:06:42;;;;;;;12.90;7.47;;;12.50;99.90;;;;;;6181920;23;20055;-72
2022/10/09 10:09:18;;;;;;;13.65;8.07;;;12.60;99.90;;;;;;6170048;23;20375;-72
2022/10/09 10:11:56;;;;;;;13.15;6.65;;;12.70;99.90;;;;;;6182592;23;20043;-72
2022/10/09 10:14:21;;;;;;;13.95;6.43;;;12.70;99.90;;;;;;6182503;23;20009;-72
2022/10/09 10:16:49;;;;;;;12.82;6.25;;;12.80;99.90;;;;;;6182551;23;20427;-72
2022/10/09 10:19:24;;;;;;;16.92;6.75;;;12.80;99.90;;;;;;6182027;23;20031;-72
2022/10/09 10:21:59;;;;;;;9.48;5.47;;;13.00;99.90;;;;;;6181587;23;19997;-72
2022/10/09 10:24:31;;;;;;;8.10;6.05;;;13.00;99.90;;;;;;6182077;23;20051;-72
2022/10/09 10:27:03;;;;;;;7.97;4.90;;;13.10;99.90;;;;;;6182048;23;20005;-72
2022/10/09 10:29:34;;;;;;;10.70;6.47;;;13.00;99.90;;;;;;6182295;23;20029;-72
2022/10/09 10:32:09;;;;;;;11.95;5.60;;;13.00;99.90;;;;;;6182059;23;20073;-72
2022/10/09 10:34:58;;;;;;;13.55;5.32;;;13.00;99.90;;;;;;6181432;23;20021;-72
2022/10/09 10:37:59;;;;;;;8.38;4.28;;;13.10;99.90;;;;;;6181951;23;20454;-72
2022/10/09 10:40:32;;;;;;;6.82;4.88;;;13.10;99.90;;;;;;6182374;23;20032;-72
2022/10/09 10:43:09;;;;;;;9.18;4.65;;;13.20;99.90;;;;;;6181890;23;20084;-72
2022/10/09 10:45:44;;;;;;;10.65;4.38;;;13.30;99.90;;;;;;6182088;23;20001;-72
2022/10/09 10:48:35;;;;;;;18.70;6.72;;;13.40;99.90;;;;;;6182072;23;20809;-72
2022/10/09 10:51:23;;;;;;;5.22;2.83;;;13.40;99.90;;;;;;6181434;23;20312;-72
2022/10/09 10:54:27;;;;;;;12.27;5.63;;;13.40;99.90;;;;;;6182003;23;20071;-72
2022/10/09 10:57:15;;;;;;;8.73;3.83;;;13.50;99.90;;;;;;6181612;23;20001;-72
2022/10/09 10:59:59;;;;;;;8.15;4.65;;;13.50;99.90;;;;;;6181940;23;20367;-71
2022/10/09 11:03:01;;;;;;;11.85;4.72;;;13.50;99.90;;;;;;6182195;23;20382;-71
2022/10/09 11:05:36;;;;;;;5.25;4.57;;;13.60;99.90;;;;;;6061367;23;20073;-72
2022/10/09 11:08:57;;;;;;;7.45;4.85;;;13.60;99.90;;;;;;6061999;23;20015;-71
2022/10/09 11:11:49;;;;;;;9.27;5.28;;;13.70;99.90;;;;;;5934836;24;20095;-72
2022/10/09 11:14:50;;;;;;;10.23;5.60;;;13.70;99.90;;;;;;5976793;24;20012;-71
2022/10/09 11:17:32;;;;;;;9.20;4.30;;;13.60;99.90;;;;;;5976644;24;20075;-71
2022/10/09 11:20:07;;;;;;;9.75;4.63;;;13.60;99.90;;;;;;5975938;24;20017;-71
2022/10/09 11:22:59;;;;;;;10.52;4.30;;;13.60;99.90;;;;;;5976963;24;20008;-71
2022/10/09 11:25:35;;;;;;;8.23;4.25;;;14.50;99.90;;;;;;5947930;24;20051;-71
2022/10/09 11:28:09;;;;;;;7.00;3.65;;;13.80;99.90;;;;;;5976598;24;20068;-71
2022/10/09 11:31:03;;;;;;;9.77;4.13;;;13.80;99.90;;;;;;5977454;24;20117;-71
2022/10/09 11:33:41;;;;;;;6.37;3.73;;;13.90;99.90;;;;;;5978185;24;20020;-71
2022/10/09 11:36:14;;;;;;;7.32;4.15;;;13.80;99.90;;;;;;5978547;24;20276;-72
2022/10/09 11:38:45;;;;;;;5.68;3.42;;;13.80;99.90;;;;;;5978448;24;20012;-71
2022/10/09 11:41:11;;;;;;;6.20;3.67;;;13.80;99.90;;;;;;5987504;23;20008;-72
2022/10/09 11:43:54;;;;;;;6.10;3.42;;;13.80;99.90;;;;;;6122021;23;20033;-71
2022/10/09 11:46:49;;;;;;;7.10;4.23;;;13.80;99.90;;;;;;6183669;23;20008;-71
2022/10/09 11:49:23;;;;;;;12.50;4.75;;;13.80;99.90;;;;;;6184270;23;20216;-71
2022/10/09 11:51:56;;;;;;;7.22;3.63;;;13.90;99.90;;;;;;6183695;23;20055;-71
2022/10/09 11:54:24;;;;;;;4.97;3.13;;;11.30;99.90;;;;;;6183707;23;20001;-71
2022/10/09 11:56:59;;;;;;;6.80;2.85;;;13.90;99.90;;;;;;6183334;23;20031;-71
2022/10/09 11:59:29;;;;;;;7.45;2.55;;;14.00;99.90;;;;;;6182610;23;20013;-71
2022/10/09 12:01:57;;;;;;;7.90;3.05;;;14.10;99.90;;;;;;6181901;23;20079;-71
2022/10/09 12:04:31;;;;;;;6.78;2.95;;;14.00;99.90;;;;;;6181927;23;20011;-71
2022/10/09 12:07:00;;;;;;;3.95;2.50;;;14.10;99.90;;;;;;6182605;23;20072;-70
2022/10/09 12:09:30;;;;;;;7.18;3.25;;;14.20;99.90;;;;;;6182539;23;20009;-70
2022/10/09 12:12:14;;;;;;;7.72;3.55;;;15.20;99.90;;;;;;6182980;23;20004;-71
2022/10/09 12:14:39;;;;;;;11.82;3.38;;;14.20;99.90;;;;;;6183025;23;20016;-71
2022/10/09 12:17:33;;;;;;;3.92;3.55;;;14.30;99.90;;;;;;6182597;23;20001;-71
2022/10/09 12:20:18;;;;;;;7.40;2.65;;;14.30;99.90;;;;;;6182728;23;20005;-72
2022/10/09 12:22:46;;;;;;;9.85;3.72;;;14.30;99.90;;;;;;6182304;23;20068;-71
2022/10/09 12:25:37;;;;;;;6.18;2.38;;;14.40;99.90;;;;;;6182497;23;20008;-71
2022/10/09 12:28:04;;;;;;;5.53;2.83;;;14.40;99.90;;;;;;6183103;23;20008;-71
2022/10/09 12:30:38;;;;;;;4.03;3.03;;;14.50;99.90;;;;;;6182726;23;20653;-71
2022/10/09 12:33:14;;;;;;;5.18;2.42;;;14.50;99.90;;;;;;6183177;23;20103;-71
2022/10/09 12:35:43;;;;;;;6.38;2.15;;;14.60;99.90;;;;;;6182770;23;20015;-71
2022/10/09 12:38:27;;;;;;;9.85;2.72;;;14.50;99.90;;;;;;6182586;23;20482;-71
2022/10/09 12:40:57;;;;;;;3.70;2.15;;;14.60;99.90;;;;;;6182610;23;20001;-71
2022/10/09 12:43:23;;;;;;;7.10;2.50;;;14.50;99.90;;;;;;6183803;23;20379;-71
2022/10/09 12:45:51;;;;;;;5.45;2.10;;;14.60;99.90;;;;;;6182549;23;19997;-71
2022/10/09 12:48:20;;;;;;;5.97;2.00;;;14.60;99.90;;;;;;6182792;23;20443;-71
2022/10/09 12:50:46;;;;;;;4.50;2.53;;;14.60;99.90;;;;;;6182753;23;20032;-72
2022/10/09 12:53:15;;;;;;;3.83;2.70;;;14.70;99.90;;;;;;6182562;23;20331;-71
2022/10/09 12:55:59;;;;;;;6.82;2.95;;;14.70;99.90;;;;;;6182765;23;20012;-71
2022/10/09 12:58:30;;;;;;;3.22;1.67;;;14.70;99.90;;;;;;6182538;23;20009;-71
2022/10/09 13:01:01;;;;;;;5.55;1.98;;;14.60;99.90;;;;;;6182186;23;20013;-71
2022/10/09 13:03:58;;;;;;;3.22;1.67;;;14.80;99.90;;;;;;6182320;23;20001;-71